Terminal Aerodrome Forecast
Issued by NWS Green Bay, WI

Home | Current Version | Previous Version | Graphics & Text | Print | Product List | Glossary Off
Versions: 1 2 3 4 5 6 7 8 9 10 11 12 13 14 15 16 17 18 19

000
FTUS43 KGRB 271139
TAFGRB
TAF
KGRB 271139Z 2712/2812 26004KT P6SM SCT050 SCT090
     FM271500 28008KT P6SM FEW070
     FM272000 25010KT P6SM SKC
     FM280000 22008KT P6SM FEW200
     FM280900 20007KT P6SM BKN150=

USA.gov is the U.S. government's official web portal to all federal, state and local government web resources and services.